Time;durP1;ratioP1;P1;durP2;ratioP2;P2;SDS_P1;SDS_P2;PMS_P1;PMS_P2;Temp;Humidity;BMP_temperature;BMP_pressure;BME280_temperature;BME280_humidity;BME280_pressure;Samples;Min_cycle;Max_cycle;Signal;HPM_P1;HPM_P2
2021/06/26 00:01:23;;;;;;;10.17;5.50;;;;;;;13.22;100.00;94127.53;5133717;28;20252;-77
2021/06/26 00:03:52;;;;;;;11.67;5.90;;;;;;;13.28;100.00;94126.66;5133664;28;20197;-76
2021/06/26 00:06:19;;;;;;;10.27;5.57;;;;;;;13.30;100.00;94129.09;5133656;28;20192;-78
2021/06/26 00:08:45;;;;;;;8.70;5.53;;;;;;;13.33;100.00;94128.69;5133486;28;20221;-77
2021/06/26 00:11:12;;;;;;;12.57;5.80;;;;;;;13.37;100.00;94134.31;5133466;28;20197;-76
2021/06/26 00:13:38;;;;;;;8.27;5.77;;;;;;;13.39;100.00;94134.91;5133751;28;20208;-76
2021/06/26 00:16:05;;;;;;;9.57;5.40;;;;;;;13.41;100.00;94133.72;5133658;28;20197;-76
2021/06/26 00:18:33;;;;;;;12.27;6.00;;;;;;;13.43;100.00;94130.88;5133577;28;20197;-76
2021/06/26 00:21:00;;;;;;;10.60;5.13;;;;;;;13.41;100.00;94135.53;5133455;28;20228;-77
2021/06/26 00:23:26;;;;;;;7.07;4.77;;;;;;;13.41;100.00;94130.28;5133279;28;20648;-77
2021/06/26 00:25:53;;;;;;;11.20;4.80;;;;;;;13.38;100.00;94122.84;5133225;27;20287;-76
2021/06/26 00:28:19;;;;;;;9.50;4.27;;;;;;;13.32;100.00;94121.84;5136901;27;20273;-77
2021/06/26 00:30:46;;;;;;;7.93;5.20;;;;;;;13.25;100.00;94118.41;5137418;27;20193;-79
2021/06/26 00:33:12;;;;;;;8.87;5.27;;;;;;;13.22;100.00;94113.59;5137184;27;20647;-78
2021/06/26 00:35:40;;;;;;;8.07;5.20;;;;;;;13.19;100.00;94114.81;5137199;27;20203;-78
2021/06/26 00:38:07;;;;;;;8.30;5.07;;;;;;;13.15;100.00;94111.00;5137118;27;20563;-77
2021/06/26 00:40:34;;;;;;;11.05;5.25;;;;;;;13.12;100.00;94108.78;5137164;27;20224;-77
2021/06/26 00:43:00;;;;;;;9.10;5.87;;;;;;;13.09;100.00;94111.81;5137212;27;20225;-77
2021/06/26 00:45:27;;;;;;;11.20;5.60;;;;;;;13.09;100.00;94109.19;5137136;27;20225;-77
2021/06/26 00:47:54;;;;;;;9.57;5.20;;;;;;;13.08;100.00;94102.34;5136898;27;20193;-77
2021/06/26 00:50:22;;;;;;;8.17;4.60;;;;;;;13.05;100.00;94108.00;5136839;27;20193;-76
2021/06/26 00:52:51;;;;;;;11.93;4.87;;;;;;;12.99;100.00;94108.81;5136796;27;20618;-78
2021/06/26 00:55:19;;;;;;;8.63;4.50;;;;;;;12.95;100.00;94111.06;5136959;27;20196;-78
2021/06/26 00:57:49;;;;;;;9.67;5.00;;;;;;;12.92;100.00;94112.28;5136824;27;20222;-78
2021/06/26 01:00:16;;;;;;;7.93;5.03;;;;;;;12.91;100.00;94102.81;5136634;27;20586;-78
2021/06/26 01:02:43;;;;;;;9.03;5.30;;;;;;;12.89;100.00;94099.59;5136728;27;20197;-79
2021/06/26 01:05:11;;;;;;;12.60;5.30;;;;;;;12.87;100.00;94096.38;5136560;27;20193;-78
2021/06/26 01:07:37;;;;;;;15.10;5.47;;;;;;;12.85;100.00;94098.38;5136764;27;20200;-77
2021/06/26 01:10:07;;;;;;;9.90;5.30;;;;;;;12.82;100.00;94104.03;5136725;27;20555;-78
2021/06/26 01:12:34;;;;;;;8.90;4.73;;;;;;;12.82;100.00;94098.78;5136653;27;20204;-77
2021/06/26 01:15:00;;;;;;;6.87;4.90;;;;;;;12.80;100.00;94094.78;5136365;27;20205;-77
2021/06/26 01:17:27;;;;;;;13.03;5.17;;;;;;;12.74;100.00;94096.44;5136377;27;20201;-77
2021/06/26 01:19:54;;;;;;;9.63;5.03;;;;;;;12.68;100.00;94097.25;5136305;27;20695;-77
2021/06/26 01:22:22;;;;;;;12.73;5.10;;;;;;;12.62;100.00;94098.84;5136532;27;20196;-79
2021/06/26 01:24:51;;;;;;;8.80;5.63;;;;;;;12.55;100.00;94088.38;5136229;27;20775;-79
2021/06/26 01:27:18;;;;;;;11.70;5.73;;;;;;;12.46;100.00;94089.63;5136047;27;20216;-77
2021/06/26 01:29:49;;;;;;;11.20;6.57;;;;;;;12.46;100.00;94088.81;5136382;27;20205;-77
2021/06/26 01:32:16;;;;;;;10.03;6.20;;;;;;;12.40;100.00;94085.19;5135983;27;20300;-78
2021/06/26 01:34:43;;;;;;;11.27;6.20;;;;;;;12.34;100.00;94086.00;5136213;27;20196;-77
2021/06/26 01:37:13;;;;;;;13.43;5.70;;;;;;;12.29;100.00;94091.03;5135780;27;20205;-77
2021/06/26 01:39:40;;;;;;;11.37;5.87;;;;;;;12.27;100.00;94083.38;5135981;27;20207;-76
2021/06/26 01:42:09;;;;;;;15.73;6.67;;;;;;;12.29;100.00;94091.03;5136007;27;20196;-77
2021/06/26 01:44:35;;;;;;;12.90;6.60;;;;;;;12.29;100.00;94088.41;5135820;27;20197;-77
2021/06/26 01:47:02;;;;;;;13.13;5.93;;;;;;;12.30;100.00;94090.84;5136000;27;20201;-78
2021/06/26 01:49:29;;;;;;;14.00;6.57;;;;;;;12.30;100.00;94082.97;5135556;27;20197;-77
2021/06/26 01:51:55;;;;;;;9.33;5.87;;;;;;;12.28;100.00;94076.34;5135781;27;20212;-77
2021/06/26 01:54:22;;;;;;;11.52;7.07;;;;;;;12.26;100.00;94075.72;5135125;27;20433;-76
2021/06/26 01:56:48;;;;;;;12.37;6.73;;;;;;;12.20;100.00;94075.53;5135535;27;20655;-78
2021/06/26 01:59:16;;;;;;;13.17;6.97;;;;;;;12.16;100.00;94069.09;5135551;27;20228;-78
2021/06/26 02:01:43;;;;;;;19.37;6.90;;;;;;;12.11;100.00;94075.97;5135646;27;20586;-77
2021/06/26 02:04:09;;;;;;;10.87;6.10;;;;;;;12.01;100.00;94065.91;5135591;27;20207;-77
2021/06/26 02:06:36;;;;;;;10.57;5.90;;;;;;;11.91;100.00;94063.69;5135601;27;20201;-76
2021/06/26 02:09:03;;;;;;;14.87;5.47;;;;;;;11.82;100.00;94060.44;5135295;27;20654;-79
2021/06/26 02:11:29;;;;;;;11.07;6.17;;;;;;;11.81;100.00;94061.44;5135396;27;20236;-80
2021/06/26 02:13:56;;;;;;;10.90;6.33;;;;;;;11.72;100.00;94060.00;5135219;27;20199;-76
2021/06/26 02:16:25;;;;;;;11.77;5.70;;;;;;;11.68;100.00;94061.44;5135422;27;20197;-76
2021/06/26 02:18:53;;;;;;;12.03;6.47;;;;;;;11.63;100.00;94066.47;5135360;27;20193;-78
2021/06/26 02:21:19;;;;;;;10.47;6.17;;;;;;;11.60;100.00;94065.03;5135035;27;20281;-76
2021/06/26 02:23:46;;;;;;;14.07;6.33;;;;;;;11.61;100.00;94071.88;5135147;27;20201;-77
2021/06/26 02:26:13;;;;;;;9.47;6.03;;;;;;;11.62;100.00;94057.81;5134824;27;20225;-77
2021/06/26 02:28:39;;;;;;;19.63;7.87;;;;;;;11.61;100.00;94064.03;5135228;27;20300;-77
2021/06/26 02:31:06;;;;;;;14.40;7.37;;;;;;;11.61;100.00;94056.19;5134972;27;20678;-77
2021/06/26 02:33:33;;;;;;;11.40;6.50;;;;;;;11.53;100.00;94063.44;5135045;27;20200;-76
2021/06/26 02:36:00;;;;;;;16.90;7.80;;;;;;;11.47;100.00;94057.16;5134061;27;20200;-76
2021/06/26 02:38:26;;;;;;;14.43;6.87;;;;;;;11.44;100.00;94060.19;5132862;27;20280;-78
2021/06/26 02:40:55;;;;;;;16.57;7.73;;;;;;;11.42;100.00;94054.34;5126624;27;20228;-77
2021/06/26 02:43:21;;;;;;;14.83;7.13;;;;;;;11.38;100.00;94055.75;5114307;28;20197;-78
2021/06/26 02:45:50;;;;;;;19.40;7.90;;;;;;;11.31;100.00;94055.75;5114258;28;20587;-77
2021/06/26 02:48:17;;;;;;;19.60;8.23;;;;;;;11.31;100.00;94047.91;5133534;27;20197;-78
2021/06/26 02:50:44;;;;;;;17.93;8.67;;;;;;;11.33;100.00;94048.50;5133787;27;20200;-77
2021/06/26 02:53:11;;;;;;;17.60;8.67;;;;;;;11.26;100.00;94045.88;5134601;27;20212;-78
2021/06/26 02:55:37;;;;;;;19.77;9.73;;;;;;;11.35;100.00;94048.31;5134691;27;20211;-76
2021/06/26 02:58:04;;;;;;;19.60;8.57;;;;;;;11.29;100.00;94045.50;5134705;27;20296;-76
2021/06/26 03:00:31;;;;;;;20.27;9.20;;;;;;;11.35;100.00;94048.31;5134452;27;20275;-78
2021/06/26 03:02:57;;;;;;;19.70;9.53;;;;;;;11.33;100.00;94045.09;5134595;27;20208;-76
2021/06/26 03:05:24;;;;;;;23.87;10.13;;;;;;;11.27;100.00;94044.88;5134401;27;20192;-77
2021/06/26 03:07:53;;;;;;;22.43;10.40;;;;;;;11.27;100.00;94044.06;5134326;27;20287;-76
2021/06/26 03:10:20;;;;;;;22.33;10.50;;;;;;;11.32;100.00;94044.28;5134473;27;20297;-76
2021/06/26 03:12:51;;;;;;;26.03;11.73;;;;;;;11.29;100.00;94042.03;5134226;27;20203;-77
2021/06/26 03:15:19;;;;;;;22.30;9.87;;;;;;;11.25;100.00;94052.09;5134302;27;20196;-78
2021/06/26 03:17:45;;;;;;;26.70;11.30;;;;;;;11.23;100.00;94045.47;5134242;27;20192;-77
2021/06/26 03:20:17;;;;;;;26.37;12.47;;;;;;;11.25;100.00;94049.47;5133451;27;20433;-77
2021/06/26 03:22:43;;;;;;;25.17;10.83;;;;;;;11.29;100.00;94052.50;5133955;27;20192;-76
2021/06/26 03:25:14;;;;;;;24.60;10.10;;;;;;;11.30;100.00;94048.91;5134182;27;20200;-77
2021/06/26 03:27:41;;;;;;;27.77;11.40;;;;;;;11.22;100.00;94054.31;5134058;27;20233;-76
2021/06/26 03:30:09;;;;;;;27.10;10.60;;;;;;;11.20;100.00;94049.28;5134176;27;20203;-76
2021/06/26 03:32:35;;;;;;;28.13;11.43;;;;;;;11.22;100.00;94052.50;5133980;27;20197;-78
2021/06/26 03:35:03;;;;;;;21.23;10.83;;;;;;;11.21;100.00;94055.31;5133825;27;20279;-77
2021/06/26 03:37:31;;;;;;;29.47;12.20;;;;;;;11.21;100.00;94052.72;5134188;27;20201;-77
2021/06/26 03:40:03;;;;;;;22.70;10.70;;;;;;;11.21;100.00;94050.09;5133907;28;20203;-76
2021/06/26 03:42:31;;;;;;;31.90;12.50;;;;;;;11.23;100.00;94053.31;5133855;28;20228;-76
2021/06/26 03:44:57;;;;;;;25.73;11.50;;;;;;;11.26;100.00;94058.16;5133847;28;20196;-76
2021/06/26 03:47:25;;;;;;;26.80;12.27;;;;;;;11.28;100.00;94056.13;5133754;28;20203;-76
2021/06/26 03:49:52;;;;;;;42.80;15.40;;;;;;;11.43;100.00;94059.38;5134005;28;20200;-76
2021/06/26 03:52:19;;;;;;;31.33;12.40;;;;;;;11.44;100.00;94057.56;5133972;28;20200;-78
2021/06/26 03:54:47;;;;;;;30.47;13.00;;;;;;;11.39;100.00;94052.94;5133895;28;20550;-77
2021/06/26 03:57:13;;;;;;;35.47;13.93;;;;;;;11.41;100.00;94056.16;5133757;28;20200;-76
2021/06/26 03:59:41;;;;;;;36.43;14.53;;;;;;;11.40;100.00;94061.59;5133678;28;20279;-75
2021/06/26 04:02:09;;;;;;;33.65;14.23;;;;;;;11.40;100.00;94057.16;5136355;27;20456;-78
2021/06/26 04:04:36;;;;;;;28.27;12.33;;;;;;;11.36;100.00;94052.50;5138109;27;20232;-79
2021/06/26 04:07:03;;;;;;;19.27;9.93;;;;;;;11.42;100.00;94054.34;5137845;27;20200;-76
2021/06/26 04:09:29;;;;;;;27.17;11.03;;;;;;;11.43;100.00;94062.00;5137877;27;20297;-76
2021/06/26 04:11:59;;;;;;;26.37;11.00;;;;;;;11.40;100.00;94070.22;5137561;27;20666;-78
2021/06/26 04:14:25;;;;;;;33.57;14.83;;;;;;;11.39;100.00;94062.59;5137569;27;20192;-79
2021/06/26 04:16:53;;;;;;;32.00;13.13;;;;;;;11.44;100.00;94055.78;5137577;27;20201;-78
2021/06/26 04:19:20;;;;;;;26.97;11.93;;;;;;;11.51;100.00;94063.63;5137721;27;20209;-77
2021/06/26 04:21:46;;;;;;;33.93;13.77;;;;;;;11.55;100.00;94061.41;5137614;27;20228;-77
2021/06/26 04:24:18;;;;;;;30.87;13.10;;;;;;;11.58;100.00;94066.25;5137460;27;20203;-78
2021/06/26 04:26:45;;;;;;;21.80;10.67;;;;;;;11.65;100.00;94065.25;5137310;27;20316;-78
2021/06/26 04:29:12;;;;;;;22.77;10.67;;;;;;;11.75;100.00;94054.38;5137271;27;20192;-77
2021/06/26 04:31:41;;;;;;;18.87;9.93;;;;;;;11.82;100.00;94057.84;5137561;27;20200;-77
2021/06/26 04:34:11;;;;;;;21.47;9.77;;;;;;;11.87;100.00;94059.81;5137429;27;20203;-76
2021/06/26 04:36:38;;;;;;;21.90;10.60;;;;;;;11.93;100.00;94060.88;5137206;27;20291;-76
2021/06/26 04:39:07;;;;;;;15.97;8.60;;;;;;;11.95;100.00;94058.84;5137232;27;20284;-77
2021/06/26 04:41:34;;;;;;;17.03;8.97;;;;;;;12.11;100.00;94065.50;5136908;27;20217;-77
2021/06/26 04:44:00;;;;;;;25.50;11.83;;;;;;;12.30;100.00;94056.81;5137302;27;20548;-77
2021/06/26 04:46:27;;;;;;;31.17;14.07;;;;;;;12.43;100.00;94063.84;5137168;27;20203;-75
2021/06/26 04:48:55;;;;;;;31.17;13.70;;;;;;;12.54;100.00;94060.59;5137174;27;20207;-76
2021/06/26 04:51:23;;;;;;;23.63;11.47;;;;;;;12.66;100.00;94060.75;5137009;27;20205;-76
2021/06/26 04:53:50;;;;;;;26.70;12.73;;;;;;;12.74;100.00;94065.00;5136477;27;20249;-76
2021/06/26 04:56:17;;;;;;;26.67;12.40;;;;;;;12.84;100.00;94060.13;5136754;27;20197;-77
2021/06/26 04:58:43;;;;;;;25.73;12.47;;;;;;;12.93;100.00;94065.91;5136924;27;20203;-78
2021/06/26 05:01:10;;;;;;;22.63;11.67;;;;;;;13.01;100.00;94070.94;5136862;27;20241;-76
2021/06/26 05:03:39;;;;;;;21.63;12.47;;;;;;;13.08;100.00;94073.53;5136806;27;20204;-77
2021/06/26 05:06:05;;;;;;;24.07;12.23;;;;;;;13.18;100.00;94063.38;5136562;27;20197;-78
2021/06/26 05:08:34;;;;;;;26.23;13.50;;;;;;;13.20;100.00;94061.34;5136650;27;20201;-78
2021/06/26 05:11:02;;;;;;;22.53;12.40;;;;;;;13.25;100.00;94066.78;5136404;27;20575;-77
2021/06/26 05:13:29;;;;;;;25.15;13.23;;;;;;;13.35;100.00;94055.06;5135734;27;20197;-76
2021/06/26 05:15:55;;;;;;;27.25;14.88;;;;;;;13.26;100.00;94059.72;5136564;27;20196;-76
2021/06/26 05:18:22;;;;;;;25.33;12.43;;;;;;;13.39;100.00;94053.63;5136343;27;20192;-76
2021/06/26 05:20:48;;;;;;;26.37;13.27;;;;;;;13.48;100.00;94058.41;5136474;27;20203;-75
2021/06/26 05:23:17;;;;;;;28.40;14.15;;;;;;;13.61;100.00;94052.28;5136191;27;20247;-77
2021/06/26 05:25:45;;;;;;;22.15;12.02;;;;;;;13.73;100.00;94049.78;5136199;27;20201;-78
2021/06/26 05:28:12;;;;;;;26.98;15.05;;;;;;;13.81;100.00;94053.97;5135164;27;20446;-77
2021/06/26 05:30:38;;;;;;;26.40;13.80;;;;;;;13.91;100.00;94049.03;5136362;27;20209;-77
2021/06/26 05:33:08;;;;;;;26.50;13.55;;;;;;;14.14;100.00;94058.13;5136151;27;20291;-76
2021/06/26 05:35:35;;;;;;;20.90;12.18;;;;;;;14.44;100.00;94064.34;5136060;27;20207;-76
2021/06/26 05:38:02;;;;;;;24.48;12.95;;;;;;;14.48;100.00;94063.91;5135967;27;20201;-77
2021/06/26 05:40:28;;;;;;;24.63;12.02;;;;;;;14.71;100.00;94064.09;5136148;27;20201;-76
2021/06/26 05:42:56;;;;;;;20.70;11.05;;;;;;;15.37;100.00;94066.97;5136166;27;20234;-76
2021/06/26 05:45:23;;;;;;;18.38;10.30;;;;;;;16.31;100.00;94066.41;5135930;27;20210;-77
2021/06/26 05:47:49;;;;;;;20.08;10.05;;;;;;;16.89;100.00;94062.16;5136765;27;20196;-80
2021/06/26 05:50:16;;;;;;;15.20;8.63;;;;;;;17.77;100.00;94067.25;5135921;27;20207;-77
2021/06/26 05:52:49;;;;;;;17.00;9.93;;;;;;;18.19;100.00;94066.91;5135680;27;20204;-77
2021/06/26 05:55:16;;;;;;;17.08;10.05;;;;;;;18.49;100.00;94074.50;5136209;27;20197;-76
2021/06/26 05:57:42;;;;;;;23.90;10.45;;;;;;;18.42;100.00;94067.78;5135727;27;20287;-77
2021/06/26 06:00:12;;;;;;;15.27;8.93;;;;;;;18.93;99.85;94078.28;5135473;27;20193;-77
2021/06/26 06:02:41;;;;;;;15.43;9.20;;;;;;;19.15;98.16;94076.47;5135540;27;20239;-78
2021/06/26 06:05:08;;;;;;;17.48;9.35;;;;;;;19.11;94.46;94075.34;5135475;27;20192;-79
2021/06/26 06:07:35;;;;;;;15.50;9.25;;;;;;;19.48;94.67;94073.91;5135622;27;20193;-79
2021/06/26 06:10:05;;;;;;;13.93;9.10;;;;;;;20.04;89.33;94081.66;5135513;27;20235;-80
2021/06/26 06:12:33;;;;;;;12.73;8.32;;;;;;;20.63;85.64;94081.63;5135369;27;20587;-79
2021/06/26 06:15:00;;;;;;;9.82;6.82;;;;;;;22.29;79.06;94081.16;5135238;27;20207;-79
2021/06/26 06:17:28;;;;;;;9.75;6.07;;;;;;;21.92;77.20;94084.84;5135221;27;20201;-79
2021/06/26 06:19:55;;;;;;;10.77;7.38;;;;;;;20.69;79.81;94082.44;5135182;27;20200;-80
2021/06/26 06:22:23;;;;;;;10.27;7.15;;;;;;;20.53;81.25;94078.84;5135320;27;20220;-79
2021/06/26 06:24:50;;;;;;;10.40;7.43;;;;;;;20.52;80.77;94082.56;5135308;27;20229;-79
2021/06/26 06:27:16;;;;;;;11.50;7.70;;;;;;;20.51;80.17;94080.97;5134831;27;20310;-78
2021/06/26 06:29:45;;;;;;;9.38;5.85;;;;;;;21.48;79.14;94082.59;5134908;27;20201;-78
2021/06/26 06:32:12;;;;;;;9.95;5.72;;;;;;;21.80;77.14;94079.75;5135015;27;20204;-78
2021/06/26 06:34:40;;;;;;;6.32;4.82;;;;;;;21.50;79.75;94080.47;5135110;27;20205;-77
2021/06/26 06:37:06;;;;;;;11.85;7.75;;;;;;;20.31;83.83;94071.81;5135048;27;20204;-78
2021/06/26 06:39:33;;;;;;;11.55;7.82;;;;;;;18.65;95.17;94082.63;5134890;27;20556;-80
2021/06/26 06:41:59;;;;;;;11.25;7.53;;;;;;;18.53;98.35;94074.81;5134737;27;20233;-78
2021/06/26 06:44:26;;;;;;;10.70;7.72;;;;;;;18.37;98.76;94076.44;5134726;27;20201;-78
2021/06/26 06:46:52;;;;;;;11.65;7.57;;;;;;;18.59;96.52;94078.34;5134502;27;20200;-79
2021/06/26 06:49:21;;;;;;;11.65;7.38;;;;;;;18.43;99.86;94072.03;5134894;27;20204;-78
2021/06/26 06:51:50;;;;;;;12.98;8.30;;;;;;;18.70;96.99;94082.72;5134707;27;20224;-80
2021/06/26 06:54:16;;;;;;;11.30;7.43;;;;;;;18.69;98.18;94078.47;5134700;27;20566;-79
2021/06/26 06:56:43;;;;;;;9.90;7.47;;;;;;;19.26;95.63;94081.88;5134006;27;20655;-80
2021/06/26 06:59:09;;;;;;;11.98;7.80;;;;;;;19.64;96.13;94088.94;5134119;27;20655;-77
2021/06/26 07:01:36;;;;;;;10.82;6.88;;;;;;;19.82;91.01;94090.47;5134630;27;20552;-78
2021/06/26 07:04:04;;;;;;;10.77;6.80;;;;;;;20.64;85.45;94096.47;5134500;27;20212;-78
2021/06/26 07:06:31;;;;;;;10.70;6.38;;;;;;;20.82;84.64;94097.13;5134522;27;20197;-78
2021/06/26 07:08:59;;;;;;;9.05;6.15;;;;;;;20.85;85.43;94096.59;5134237;27;20207;-79
2021/06/26 07:11:28;;;;;;;10.40;6.93;;;;;;;20.86;84.16;94088.38;5134256;27;20203;-79
2021/06/26 07:13:54;;;;;;;10.60;7.10;;;;;;;20.75;85.47;94081.44;5134088;27;20205;-79
2021/06/26 07:16:21;;;;;;;10.48;6.57;;;;;;;20.92;82.53;94091.88;5134172;27;20726;-79
2021/06/26 07:18:47;;;;;;;12.48;7.47;;;;;;;20.54;82.22;94085.78;5134264;27;20563;-78
2021/06/26 07:21:14;;;;;;;14.30;6.65;;;;;;;20.69;83.73;94085.91;5134029;27;20292;-78
2021/06/26 07:23:42;;;;;;;11.90;7.70;;;;;;;20.36;87.05;94089.59;5133817;27;20694;-77
2021/06/26 07:26:10;;;;;;;14.80;8.43;;;;;;;19.48;87.46;94090.59;5133582;27;20197;-78
2021/06/26 07:28:37;;;;;;;13.18;8.63;;;;;;;19.17;89.40;94089.47;5134343;27;20204;-79
2021/06/26 07:31:03;;;;;;;10.48;6.93;;;;;;;19.49;92.12;94080.84;5133734;27;20196;-79
2021/06/26 07:33:30;;;;;;;12.95;8.38;;;;;;;19.25;93.68;94080.28;5133592;27;20207;-79
2021/06/26 07:35:56;;;;;;;12.82;7.60;;;;;;;19.38;88.47;94087.84;5133521;27;20208;-78
2021/06/26 07:38:23;;;;;;;11.98;7.97;;;;;;;18.98;93.89;94081.81;5133980;27;20197;-78
2021/06/26 07:40:51;;;;;;;11.93;7.88;;;;;;;19.01;91.13;94091.09;5133693;27;20204;-78
2021/06/26 07:43:19;;;;;;;13.93;7.95;;;;;;;19.17;91.43;94095.56;5134085;28;20235;-78
2021/06/26 07:45:54;;;;;;;11.60;7.50;;;;;;;19.19;91.08;94085.50;5133996;28;20201;-80
2021/06/26 07:48:20;;;;;;;12.23;8.07;;;;;;;19.11;90.16;94083.28;5133823;28;20203;-78
2021/06/26 07:50:58;;;;;;;13.18;8.80;;;;;;;19.03;91.93;94078.44;5133473;28;20197;-78
2021/06/26 07:53:25;;;;;;;13.90;8.30;;;;;;;19.03;90.93;94078.44;5133729;28;20226;-79
2021/06/26 07:55:53;;;;;;;12.38;7.43;;;;;;;19.20;90.71;94076.53;5134615;28;20236;-79
2021/06/26 07:58:22;;;;;;;10.93;7.75;;;;;;;19.16;93.31;94072.75;5133953;28;20204;-78
2021/06/26 08:00:51;;;;;;;15.30;7.95;;;;;;;19.37;95.98;94073.81;5133756;28;20197;-76
2021/06/26 08:03:20;;;;;;;14.05;7.68;;;;;;;19.39;89.41;94070.91;5133544;28;20224;-77
2021/06/26 08:05:54;;;;;;;10.55;7.05;;;;;;;18.94;91.82;94069.31;5133794;28;20212;-79
2021/06/26 08:08:22;;;;;;;11.18;7.38;;;;;;;19.28;90.80;94074.50;5133877;28;20559;-80
2021/06/26 08:10:50;;;;;;;9.82;6.72;;;;;;;19.10;89.87;94078.25;5133887;28;20295;-79
2021/06/26 08:13:17;;;;;;;13.15;7.40;;;;;;;19.51;90.00;94070.78;5133533;28;20207;-79
2021/06/26 08:15:47;;;;;;;10.93;7.78;;;;;;;19.64;85.19;94067.75;5133645;28;20559;-81
2021/06/26 08:18:14;;;;;;;10.48;6.95;;;;;;;19.74;84.88;94067.03;5133160;28;20651;-80
2021/06/26 08:20:41;;;;;;;9.27;6.72;;;;;;;20.33;86.69;94075.03;5133333;28;20261;-79
2021/06/26 08:23:11;;;;;;;13.55;6.03;;;;;;;20.07;80.62;94065.25;5133613;28;20312;-78
2021/06/26 08:25:38;;;;;;;8.02;5.55;;;;;;;19.88;83.30;94068.25;5133116;28;20208;-79
2021/06/26 08:28:07;;;;;;;7.85;5.68;;;;;;;19.81;83.15;94070.31;5137071;28;20698;-78
2021/06/26 08:30:34;;;;;;;7.32;5.55;;;;;;;20.13;82.33;94069.53;5134148;28;20735;-78
2021/06/26 08:33:02;;;;;;;7.53;5.35;;;;;;;20.33;80.43;94064.41;5135216;28;20197;-80
2021/06/26 08:35:29;;;;;;;7.82;5.90;;;;;;;20.03;83.22;94062.28;5136840;28;20284;-82
2021/06/26 08:37:55;;;;;;;7.57;5.53;;;;;;;20.22;83.96;94068.03;5134437;28;20203;-81
2021/06/26 08:40:22;;;;;;;8.07;5.53;;;;;;;20.37;80.24;94061.22;5136624;28;20204;-81
2021/06/26 08:42:49;;;;;;;8.63;5.50;;;;;;;20.27;80.11;94060.13;5120050;28;20233;-81
2021/06/26 08:45:19;;;;;;;8.95;5.97;;;;;;;20.16;85.65;94069.03;5114969;28;20204;-81
2021/06/26 08:47:47;;;;;;;8.80;5.38;;;;;;;20.68;80.05;94072.88;5113300;28;20204;-83
2021/06/26 08:50:22;;;;;;;9.18;5.55;;;;;;;20.48;77.38;94063.72;5116893;28;20197;-81
2021/06/26 08:52:51;;;;;;;7.82;5.38;;;;;;;20.86;76.26;94072.44;5120256;27;20196;-79
2021/06/26 08:55:20;;;;;;;11.05;5.38;;;;;;;20.88;75.16;94067.72;5116171;28;20205;-80
2021/06/26 08:57:48;;;;;;;7.93;5.07;;;;;;;20.94;80.50;94057.13;5116206;28;20532;-81
2021/06/26 09:00:19;;;;;;;7.30;5.22;;;;;;;21.04;80.49;94060.59;5116062;28;20201;-81
2021/06/26 09:02:47;;;;;;;6.28;4.95;;;;;;;21.35;72.24;94052.78;5115966;28;20656;-81
2021/06/26 09:05:28;;;;;;;9.88;5.07;;;;;;;20.85;71.74;94041.69;5116169;28;20197;-80
2021/06/26 09:08:09;;;;;;;6.40;4.68;;;;;;;20.89;75.63;94040.09;5115970;28;20243;-82
2021/06/26 09:10:37;;;;;;;6.70;4.38;;;;;;;20.99;79.34;94044.66;5115908;28;20288;-80
2021/06/26 09:13:12;;;;;;;5.20;3.50;;;;;;;21.41;76.95;94046.41;5116023;28;20205;-81
2021/06/26 09:15:39;;;;;;;6.50;4.63;;;;;;;21.27;73.65;94053.28;5116264;28;20201;-81
2021/06/26 09:18:12;;;;;;;5.25;4.18;;;;;;;21.16;75.44;94044.47;5116652;28;20211;-84
2021/06/26 09:20:43;;;;;;;6.13;4.60;;;;;;;20.94;74.43;94046.50;5117963;28;20676;-83
2021/06/26 09:23:29;;;;;;;5.78;3.90;;;;;;;20.63;75.45;94046.31;5117976;28;20217;-81
2021/06/26 09:26:05;;;;;;;5.13;3.63;;;;;;;21.15;75.18;94044.72;5115916;28;20201;-81
2021/06/26 09:28:32;;;;;;;5.28;3.70;;;;;;;21.50;73.09;94043.25;5115643;28;20200;-81
2021/06/26 09:31:02;;;;;;;5.78;4.10;;;;;;;21.41;72.82;94046.41;5116438;28;20644;-83
2021/06/26 09:33:29;;;;;;;6.18;4.00;;;;;;;21.97;73.38;94040.44;5115833;28;20198;-82
2021/06/26 09:36:09;;;;;;;3.53;2.97;;;;;;;22.47;71.39;94035.41;5115467;28;20652;-81
2021/06/26 09:38:37;;;;;;;5.03;3.90;;;;;;;21.53;67.76;94032.94;5115927;28;20615;-82
2021/06/26 09:41:14;;;;;;;3.47;2.88;;;;;;;22.12;70.99;94034.31;5114479;28;20500;-79
2021/06/26 09:43:42;;;;;;;4.50;3.40;;;;;;;22.43;67.90;94017.56;5115587;28;20232;-82
2021/06/26 09:46:10;;;;;;;5.38;4.07;;;;;;;22.44;66.98;94022.63;5116405;28;20659;-82
2021/06/26 09:48:47;;;;;;;5.88;3.83;;;;;;;22.35;67.40;94021.59;5115382;28;20193;-80
2021/06/26 09:51:23;;;;;;;4.20;3.00;;;;;;;22.29;67.06;94017.31;5117699;28;20673;-81
2021/06/26 09:53:55;;;;;;;4.75;2.63;;;;;;;22.31;72.34;94009.88;5115544;28;20224;-80
2021/06/26 09:56:24;;;;;;;3.90;3.00;;;;;;;22.20;66.49;94002.94;5115640;28;20233;-81
2021/06/26 09:58:52;;;;;;;3.78;3.15;;;;;;;22.39;72.24;94011.19;5116798;28;20236;-81
2021/06/26 10:01:21;;;;;;;3.65;2.83;;;;;;;22.42;66.07;94014.13;5120192;28;20242;-80
2021/06/26 10:03:50;;;;;;;4.32;2.30;;;;;;;21.78;66.16;94010.09;5118624;28;20229;-81
2021/06/26 10:06:20;;;;;;;3.55;2.92;;;;;;;22.04;69.68;94016.22;5116884;28;20198;-80
2021/06/26 10:08:49;;;;;;;2.47;2.10;;;;;;;22.18;69.28;94011.16;5117742;28;20200;-82
2021/06/26 10:11:18;;;;;;;3.30;2.47;;;;;;;22.09;69.09;94008.25;5115159;28;20197;-81
2021/06/26 10:13:45;;;;;;;4.60;2.75;;;;;;;22.46;68.78;94004.53;5115248;28;20205;-82
2021/06/26 10:16:17;;;;;;;2.95;2.28;;;;;;;23.24;68.26;94008.56;5114664;28;20680;-80
2021/06/26 10:18:44;;;;;;;4.70;2.13;;;;;;;23.59;65.43;94016.66;5114655;28;20206;-80
2021/06/26 10:21:26;;;;;;;2.50;2.20;;;;;;;23.35;63.86;94003.19;5114747;28;20214;-80
2021/06/26 10:23:56;;;;;;;3.50;2.25;;;;;;;23.67;61.40;94013.41;5114681;28;20229;-79
2021/06/26 10:26:25;;;;;;;3.85;2.40;;;;;;;23.62;59.66;94008.88;5114446;28;20227;-81
2021/06/26 10:28:59;;;;;;;2.85;2.40;;;;;;;23.49;62.77;94012.16;5114511;28;20208;-78
2021/06/26 10:31:31;;;;;;;2.85;2.40;;;;;;;23.58;65.41;94004.38;5114949;28;20197;-81
2021/06/26 10:34:13;;;;;;;3.55;2.60;;;;;;;23.73;60.51;94006.16;5114214;28;20545;-79
2021/06/26 10:36:43;;;;;;;3.38;2.60;;;;;;;22.75;63.08;93998.63;5114261;28;20247;-79
2021/06/26 10:39:24;;;;;;;2.80;2.40;;;;;;;22.87;62.77;94000.97;5115811;28;20204;-81
2021/06/26 10:41:58;;;;;;;3.08;2.78;;;;;;;23.30;63.67;94008.53;5115763;28;20197;-81
2021/06/26 10:44:24;;;;;;;3.72;2.80;;;;;;;23.79;64.59;93994.38;5142980;27;20764;-78
2021/06/26 10:46:54;;;;;;;5.80;2.33;;;;;;;24.00;61.72;94001.19;5155528;27;20207;-81
2021/06/26 10:49:29;;;;;;;5.15;2.05;;;;;;;23.77;60.80;93994.66;5155533;27;20192;-79
2021/06/26 10:52:07;;;;;;;2.90;2.30;;;;;;;23.31;60.18;93994.16;5155801;27;20202;-80
2021/06/26 10:54:36;;;;;;;3.55;2.25;;;;;;;23.38;63.47;93999.97;5155164;27;20680;-80
2021/06/26 10:57:04;;;;;;;4.43;2.03;;;;;;;23.38;63.16;93999.97;5155427;27;20284;-81
2021/06/26 10:59:31;;;;;;;3.78;2.60;;;;;;;23.69;69.26;93994.47;5140515;27;20242;-79
2021/06/26 11:01:59;;;;;;;3.28;2.13;;;;;;;23.89;59.75;94005.00;5134332;27;20667;-81
2021/06/26 11:04:27;;;;;;;4.13;1.95;;;;;;;24.11;60.92;94011.78;5134257;27;20289;-80
2021/06/26 11:07:04;;;;;;;3.85;2.20;;;;;;;25.01;56.88;94001.56;5134273;27;20287;-80
2021/06/26 11:09:43;;;;;;;2.83;1.80;;;;;;;24.80;59.01;94006.34;5134505;27;20196;-79
2021/06/26 11:12:13;;;;;;;4.85;2.67;;;;;;;24.85;56.30;94007.09;5133817;27;20193;-79
2021/06/26 11:14:49;;;;;;;2.55;2.10;;;;;;;24.98;56.10;94005.63;5134221;27;20205;-80
2021/06/26 11:17:16;;;;;;;2.90;2.13;;;;;;;24.74;54.55;94001.06;5134345;27;20201;-80
2021/06/26 11:19:42;;;;;;;3.45;2.35;;;;;;;24.19;59.18;93998.63;5134229;27;20201;-80
2021/06/26 11:22:11;;;;;;;2.90;2.25;;;;;;;24.80;55.68;94001.00;5134269;27;20257;-79
2021/06/26 11:24:40;;;;;;;2.80;2.30;;;;;;;25.03;56.73;93994.06;5134073;27;20329;-80
2021/06/26 11:27:12;;;;;;;5.00;2.17;;;;;;;24.70;60.17;93997.38;5133906;27;20316;-80